Time;durP1;ratioP1;P1;durP2;ratioP2;P2;SDS_P1;SDS_P2;PMS_P1;PMS_P2;Temp;Humidity;BMP_temperature;BMP_pressure;BME280_temperature;BME280_humidity;BME280_pressure;Samples;Min_cycle;Max_cycle;Signal;HPM_P1;HPM_P2
2021/06/18 00:00:53;;;;;;;7.63;5.93;;;;;;;;;;5073578;28;20045;-69
2021/06/18 00:03:22;;;;;;;9.05;6.38;;;;;;;;;;5072716;28;20511;-69
2021/06/18 00:05:50;;;;;;;11.27;6.65;;;;;;;;;;5074004;28;20045;-66
2021/06/18 00:08:19;;;;;;;8.68;6.30;;;;;;;;;;5072431;28;20132;-67
2021/06/18 00:10:47;;;;;;;8.88;6.53;;;;;;;;;;5074188;28;20422;-67
2021/06/18 00:13:15;;;;;;;9.88;6.53;;;;;;;;;;5072850;28;20429;-67
2021/06/18 00:15:43;;;;;;;10.95;6.47;;;;;;;;;;5074064;28;20055;-67
2021/06/18 00:18:14;;;;;;;11.38;6.90;;;;;;;;;;5072986;28;20049;-67
2021/06/18 00:20:42;;;;;;;11.90;6.85;;;;;;;;;;5073692;28;20106;-67
2021/06/18 00:23:10;;;;;;;8.57;6.63;;;;;;;;;;5073281;28;20436;-67
2021/06/18 00:25:39;;;;;;;9.38;6.22;;;;;;;;;;5073147;28;20049;-67
2021/06/18 00:28:07;;;;;;;10.63;6.53;;;;;;;;;;5072647;28;20131;-67
2021/06/18 00:30:36;;;;;;;9.52;6.90;;;;;;;;;;5073361;28;20103;-67
2021/06/18 00:33:05;;;;;;;12.25;7.13;;;;;;;;;;5072367;28;20091;-67
2021/06/18 00:35:35;;;;;;;9.40;6.78;;;;;;;;;;5073015;28;20480;-67
2021/06/18 00:38:04;;;;;;;10.88;6.88;;;;;;;;;;5072038;28;20159;-67
2021/06/18 00:40:32;;;;;;;9.82;6.82;;;;;;;;;;5073523;28;20118;-67
2021/06/18 00:43:00;;;;;;;11.73;7.38;;;;;;;;;;5073064;28;20091;-67
2021/06/18 00:45:29;;;;;;;10.38;7.45;;;;;;;;;;5073008;28;20571;-67
2021/06/18 00:47:58;;;;;;;12.32;7.38;;;;;;;;;;5071766;28;20514;-67
2021/06/18 00:50:27;;;;;;;11.48;7.60;;;;;;;;;;5073384;28;20060;-67
2021/06/18 00:52:58;;;;;;;10.75;7.25;;;;;;;;;;5069421;28;20048;-67
2021/06/18 00:55:27;;;;;;;11.38;7.45;;;;;;;;;;5072324;28;20084;-67
2021/06/18 00:57:55;;;;;;;12.88;7.65;;;;;;;;;;5072140;28;20148;-67
2021/06/18 01:00:23;;;;;;;11.95;7.85;;;;;;;;;;5072659;28;20033;-67
2021/06/18 01:03:18;;;;;;;10.70;8.13;;;;;;;;;;5072976;28;20127;-67
2021/06/18 01:05:47;;;;;;;11.67;6.83;;;;;;;;;;4975854;28;20081;-62
2021/06/18 01:08:20;;;;;;;10.40;7.43;;;;;;;;;;4995088;28;20293;-63
2021/06/18 01:10:51;;;;;;;9.77;6.95;;;;;;;;;;4996666;28;20046;-62
2021/06/18 01:13:24;;;;;;;11.85;7.25;;;;;;;;;;4997059;28;20050;-62
2021/06/18 01:15:57;;;;;;;10.88;7.60;;;;;;;;;;4996419;28;20406;-63
2021/06/18 01:18:28;;;;;;;16.00;7.55;;;;;;;;;;4997218;28;20093;-62
2021/06/18 01:21:03;;;;;;;11.55;8.10;;;;;;;;;;4996900;28;20133;-62
2021/06/18 01:23:47;;;;;;;14.35;7.80;;;;;;;;;;4996430;28;20137;-62
2021/06/18 01:26:21;;;;;;;10.63;7.28;;;;;;;;;;4997239;28;20132;-62
2021/06/18 01:28:52;;;;;;;12.52;7.75;;;;;;;;;;4996756;28;20081;-62
2021/06/18 01:31:22;;;;;;;11.00;7.43;;;;;;;;;;4996252;28;20078;-62
2021/06/18 01:33:52;;;;;;;10.88;7.60;;;;;;;;;;4995921;28;20046;-62
2021/06/18 01:36:21;;;;;;;10.73;8.15;;;;;;;;;;4995962;28;20125;-62
2021/06/18 01:38:50;;;;;;;11.68;8.07;;;;;;;;;;4996606;28;20064;-62
2021/06/18 01:41:21;;;;;;;10.95;7.43;;;;;;;;;;4995943;28;20042;-62
2021/06/18 01:43:52;;;;;;;14.82;7.90;;;;;;;;;;4996690;28;20097;-62
2021/06/18 01:46:24;;;;;;;11.02;7.90;;;;;;;;;;4996480;28;20134;-62
2021/06/18 01:48:54;;;;;;;10.82;6.90;;;;;;;;;;4995832;28;20042;-62
2021/06/18 01:51:23;;;;;;;12.77;7.70;;;;;;;;;;4995954;28;20153;-62
2021/06/18 01:53:53;;;;;;;10.32;7.22;;;;;;;;;;4995792;28;20409;-62
2021/06/18 01:56:21;;;;;;;15.70;7.45;;;;;;;;;;4995692;28;20137;-62
2021/06/18 01:58:53;;;;;;;12.07;7.82;;;;;;;;;;4995693;28;20054;-62
2021/06/18 02:01:22;;;;;;;11.20;7.95;;;;;;;;;;4995729;28;20081;-63
2021/06/18 02:03:51;;;;;;;13.52;7.60;;;;;;;;;;4993391;28;20061;-62
2021/06/18 02:06:21;;;;;;;12.40;8.02;;;;;;;;;;4988364;28;20084;-62
2021/06/18 02:08:52;;;;;;;14.23;7.53;;;;;;;;;;4970393;28;20130;-62
2021/06/18 02:11:20;;;;;;;9.65;7.82;;;;;;;;;;4972579;28;20126;-63
2021/06/18 02:13:48;;;;;;;12.98;7.25;;;;;;;;;;4971596;28;20197;-62
2021/06/18 02:16:19;;;;;;;14.55;8.52;;;;;;;;;;4969495;28;20570;-62
2021/06/18 02:18:47;;;;;;;9.98;7.20;;;;;;;;;;4973182;28;20058;-62
2021/06/18 02:21:16;;;;;;;13.88;8.38;;;;;;;;;;4970520;28;20142;-62
2021/06/18 02:23:45;;;;;;;14.07;8.00;;;;;;;;;;4966853;28;20043;-62
2021/06/18 02:26:13;;;;;;;12.10;8.18;;;;;;;;;;4970816;28;20462;-63
2021/06/18 02:28:41;;;;;;;11.55;7.55;;;;;;;;;;4973114;28;20047;-62
2021/06/18 02:31:13;;;;;;;12.23;7.40;;;;;;;;;;4972727;28;20410;-63
2021/06/18 02:33:42;;;;;;;9.75;7.50;;;;;;;;;;4972207;28;20139;-62
2021/06/18 02:36:11;;;;;;;11.60;8.00;;;;;;;;;;4971503;28;20521;-62
2021/06/18 02:38:39;;;;;;;10.13;7.60;;;;;;;;;;4972527;28;20479;-62
2021/06/18 02:41:07;;;;;;;12.38;7.93;;;;;;;;;;4969126;28;20047;-62
2021/06/18 02:43:35;;;;;;;9.10;7.65;;;;;;;;;;4954074;29;20151;-62
2021/06/18 02:46:04;;;;;;;10.70;7.93;;;;;;;;;;4971847;28;20585;-63
2021/06/18 02:48:34;;;;;;;12.20;7.80;;;;;;;;;;4996487;28;20145;-62
2021/06/18 02:51:07;;;;;;;10.90;8.10;;;;;;;;;;4989333;28;20569;-62
2021/06/18 02:53:37;;;;;;;13.85;7.75;;;;;;;;;;4990835;28;20435;-62
2021/06/18 02:56:09;;;;;;;12.02;7.70;;;;;;;;;;4989071;28;20054;-62
2021/06/18 02:58:42;;;;;;;13.32;7.97;;;;;;;;;;4991435;28;20494;-62
2021/06/18 03:01:11;;;;;;;11.90;7.80;;;;;;;;;;4980656;28;20140;-62
2021/06/18 03:03:42;;;;;;;11.95;8.00;;;;;;;;;;4991122;28;20141;-62
2021/06/18 03:06:13;;;;;;;10.60;7.82;;;;;;;;;;4990965;28;20050;-62
2021/06/18 03:08:43;;;;;;;11.00;7.97;;;;;;;;;;4991303;28;20050;-62
2021/06/18 03:11:12;;;;;;;12.40;7.50;;;;;;;;;;4991630;28;20046;-62
2021/06/18 03:13:42;;;;;;;13.30;7.57;;;;;;;;;;4991897;28;20051;-62
2021/06/18 03:16:12;;;;;;;12.70;7.82;;;;;;;;;;4989089;28;20429;-62
2021/06/18 03:18:42;;;;;;;12.13;7.90;;;;;;;;;;4990078;28;20054;-62
2021/06/18 03:21:13;;;;;;;9.82;7.90;;;;;;;;;;4989700;28;20042;-62
2021/06/18 03:23:42;;;;;;;13.80;7.85;;;;;;;;;;4987166;28;20074;-62
2021/06/18 03:26:11;;;;;;;11.23;7.97;;;;;;;;;;4990256;28;20053;-62
2021/06/18 03:28:40;;;;;;;10.82;7.88;;;;;;;;;;4991336;28;20146;-62
2021/06/18 03:31:10;;;;;;;11.77;8.23;;;;;;;;;;4989792;28;20055;-62
2021/06/18 03:33:40;;;;;;;11.63;7.53;;;;;;;;;;4990892;28;20110;-62
2021/06/18 03:36:08;;;;;;;10.80;7.65;;;;;;;;;;4989680;28;20117;-62
2021/06/18 03:38:39;;;;;;;12.85;8.20;;;;;;;;;;4990721;28;20486;-62
2021/06/18 03:41:07;;;;;;;10.60;7.82;;;;;;;;;;4987175;28;20049;-62
2021/06/18 03:43:36;;;;;;;13.70;7.88;;;;;;;;;;4991194;28;20137;-62
2021/06/18 03:46:06;;;;;;;11.60;7.32;;;;;;;;;;4990162;28;20413;-63
2021/06/18 03:48:34;;;;;;;12.23;7.88;;;;;;;;;;4990455;28;20051;-62
2021/06/18 03:51:03;;;;;;;11.80;7.93;;;;;;;;;;4986593;28;20133;-62
2021/06/18 03:53:32;;;;;;;10.23;7.65;;;;;;;;;;4989977;28;20548;-63
2021/06/18 03:56:01;;;;;;;10.05;7.53;;;;;;;;;;4981528;28;20130;-63
2021/06/18 03:58:31;;;;;;;10.68;7.80;;;;;;;;;;4986755;28;20089;-63
2021/06/18 04:01:00;;;;;;;15.98;8.00;;;;;;;;;;4985203;28;20137;-63
2021/06/18 04:03:30;;;;;;;12.63;7.70;;;;;;;;;;4990255;28;20042;-63
2021/06/18 04:06:00;;;;;;;10.55;7.55;;;;;;;;;;4987449;28;20401;-63
2021/06/18 04:08:29;;;;;;;12.13;8.10;;;;;;;;;;4987607;28;20060;-63
2021/06/18 04:10:57;;;;;;;11.90;8.05;;;;;;;;;;4986754;28;20062;-62
2021/06/18 04:13:27;;;;;;;10.15;7.15;;;;;;;;;;4990555;28;20137;-63
2021/06/18 04:15:55;;;;;;;13.05;7.55;;;;;;;;;;4987086;28;20056;-62
2021/06/18 04:18:25;;;;;;;14.18;8.02;;;;;;;;;;4983354;28;20054;-62
2021/06/18 04:20:54;;;;;;;13.23;7.88;;;;;;;;;;4990011;28;20077;-62
2021/06/18 04:23:28;;;;;;;13.18;7.05;;;;;;;;;;4990241;28;20134;-62
2021/06/18 04:25:56;;;;;;;12.25;7.90;;;;;;;;;;4977368;28;20061;-62
2021/06/18 04:28:24;;;;;;;11.50;7.82;;;;;;;;;;4988557;28;20053;-63
2021/06/18 04:30:54;;;;;;;11.63;7.05;;;;;;;;;;4991040;28;20560;-62
2021/06/18 04:33:22;;;;;;;13.27;8.02;;;;;;;;;;5000759;28;20145;-62
2021/06/18 04:35:51;;;;;;;10.80;7.55;;;;;;;;;;4990647;28;20414;-62
2021/06/18 04:38:20;;;;;;;13.82;8.18;;;;;;;;;;4993023;28;20535;-63
2021/06/18 04:40:48;;;;;;;16.30;7.63;;;;;;;;;;4992341;28;20054;-63
2021/06/18 04:43:17;;;;;;;9.80;7.65;;;;;;;;;;4988966;28;20490;-63
2021/06/18 04:45:46;;;;;;;13.05;7.43;;;;;;;;;;4994447;28;20049;-62
2021/06/18 04:48:16;;;;;;;16.63;8.30;;;;;;;;;;4991974;28;20054;-62
2021/06/18 04:50:44;;;;;;;14.02;8.05;;;;;;;;;;4993536;28;20350;-63
2021/06/18 04:53:15;;;;;;;14.27;8.07;;;;;;;;;;4992501;28;20133;-63
2021/06/18 04:55:43;;;;;;;18.58;9.73;;;;;;;;;;4993682;28;20125;-63
2021/06/18 04:58:13;;;;;;;12.82;8.13;;;;;;;;;;4993627;28;20106;-63
2021/06/18 05:00:42;;;;;;;15.43;8.38;;;;;;;;;;4992837;28;20050;-63
2021/06/18 05:03:10;;;;;;;12.77;8.05;;;;;;;;;;4992040;28;20133;-63
2021/06/18 05:05:40;;;;;;;16.15;8.43;;;;;;;;;;4993695;28;20409;-63
2021/06/18 05:08:08;;;;;;;16.33;8.15;;;;;;;;;;4980226;28;20133;-63
2021/06/18 05:10:36;;;;;;;13.07;8.02;;;;;;;;;;4969276;28;20130;-63
2021/06/18 05:13:05;;;;;;;10.60;7.30;;;;;;;;;;4987258;28;20064;-63
2021/06/18 05:15:33;;;;;;;16.65;7.90;;;;;;;;;;4976973;28;20313;-63
2021/06/18 05:18:02;;;;;;;11.85;7.30;;;;;;;;;;4978624;28;20138;-63
2021/06/18 05:20:31;;;;;;;14.20;9.00;;;;;;;;;;4973877;28;20126;-63
2021/06/18 05:23:00;;;;;;;10.57;7.50;;;;;;;;;;4973879;28;20078;-63
2021/06/18 05:25:29;;;;;;;14.35;8.50;;;;;;;;;;4973632;28;20146;-64
2021/06/18 05:27:58;;;;;;;13.35;7.55;;;;;;;;;;4973344;28;20085;-64
2021/06/18 05:30:26;;;;;;;18.85;9.02;;;;;;;;;;4958349;28;20135;-64
2021/06/18 05:32:56;;;;;;;19.15;9.90;;;;;;;;;;4967804;28;20057;-64
2021/06/18 05:35:24;;;;;;;13.60;9.23;;;;;;;;;;4965137;28;20115;-64
2021/06/18 05:37:53;;;;;;;17.20;9.55;;;;;;;;;;4971706;28;20150;-64
2021/06/18 05:40:23;;;;;;;17.80;8.90;;;;;;;;;;4972248;28;20125;-64
2021/06/18 05:42:51;;;;;;;19.20;10.10;;;;;;;;;;4970226;28;20042;-64
2021/06/18 05:45:20;;;;;;;24.08;9.23;;;;;;;;;;4966609;28;20039;-64
2021/06/18 05:47:48;;;;;;;15.02;9.10;;;;;;;;;;4967381;28;20051;-64
2021/06/18 05:50:16;;;;;;;15.55;8.70;;;;;;;;;;4968918;28;20403;-63
2021/06/18 05:52:45;;;;;;;15.50;8.35;;;;;;;;;;4968552;28;20564;-63
2021/06/18 05:55:14;;;;;;;15.90;9.07;;;;;;;;;;4968815;28;20078;-63
2021/06/18 05:57:43;;;;;;;11.50;8.45;;;;;;;;;;4969085;28;20053;-63
2021/06/18 06:00:12;;;;;;;10.60;7.88;;;;;;;;;;4965937;28;20157;-63
2021/06/18 06:02:59;;;;;;;12.27;8.02;;;;;;;;;;4964332;28;20054;-63
2021/06/18 06:05:28;;;;;;;12.95;9.23;;;;;;;;;;4966096;28;20142;-63
2021/06/18 06:07:56;;;;;;;15.75;8.02;;;;;;;;;;4967441;28;20518;-63
2021/06/18 06:10:42;;;;;;;15.95;8.45;;;;;;;;;;4966372;28;20058;-63
2021/06/18 06:13:12;;;;;;;16.75;8.02;;;;;;;;;;4968068;28;20043;-63
2021/06/18 06:15:40;;;;;;;15.93;7.97;;;;;;;;;;4968626;28;20518;-63
2021/06/18 06:18:09;;;;;;;14.93;8.20;;;;;;;;;;4955668;28;20054;-63
2021/06/18 06:20:41;;;;;;;16.10;8.25;;;;;;;;;;4968833;28;20113;-63
2021/06/18 06:23:10;;;;;;;11.63;8.02;;;;;;;;;;4977955;28;20129;-63
2021/06/18 06:25:38;;;;;;;13.45;8.15;;;;;;;;;;4968726;28;20130;-64
2021/06/18 06:28:06;;;;;;;14.23;7.03;;;;;;;;;;4968576;28;20161;-64
2021/06/18 06:30:36;;;;;;;18.10;7.40;;;;;;;;;;4969077;28;20134;-64
2021/06/18 06:33:05;;;;;;;13.35;8.32;;;;;;;;;;4971435;28;20630;-64
2021/06/18 06:35:34;;;;;;;14.45;8.07;;;;;;;;;;4969327;28;20075;-65
2021/06/18 06:38:02;;;;;;;16.55;8.43;;;;;;;;;;4968944;28;20443;-63
2021/06/18 06:40:31;;;;;;;16.55;7.63;;;;;;;;;;4971504;28;20050;-64
2021/06/18 06:42:59;;;;;;;14.45;7.30;;;;;;;;;;4971265;28;20133;-64
2021/06/18 06:45:28;;;;;;;19.52;7.25;;;;;;;;;;4969658;28;20055;-63
2021/06/18 06:47:57;;;;;;;18.17;7.65;;;;;;;;;;4983672;28;20081;-63
2021/06/18 06:50:26;;;;;;;13.10;7.75;;;;;;;;;;4987853;28;20050;-64
2021/06/18 06:52:54;;;;;;;13.85;7.45;;;;;;;;;;4987470;28;20050;-64
2021/06/18 06:55:23;;;;;;;12.77;7.28;;;;;;;;;;4986550;28;20077;-64
2021/06/18 06:57:52;;;;;;;10.60;6.78;;;;;;;;;;4985971;28;20586;-64
2021/06/18 07:00:22;;;;;;;14.02;7.95;;;;;;;;;;4986744;28;20114;-63
2021/06/18 07:02:51;;;;;;;12.75;6.70;;;;;;;;;;4988332;28;20121;-64
2021/06/18 07:05:21;;;;;;;13.60;6.80;;;;;;;;;;4988706;28;20054;-64
2021/06/18 07:07:50;;;;;;;15.98;7.05;;;;;;;;;;4975891;28;20084;-63
2021/06/18 07:10:18;;;;;;;12.82;6.85;;;;;;;;;;4973352;28;20035;-64
2021/06/18 07:12:47;;;;;;;11.23;7.15;;;;;;;;;;4987863;28;20069;-63
2021/06/18 07:15:16;;;;;;;16.55;7.53;;;;;;;;;;4987478;28;20058;-63
2021/06/18 07:17:45;;;;;;;15.43;6.38;;;;;;;;;;4984311;28;20132;-64
2021/06/18 07:20:14;;;;;;;11.27;6.63;;;;;;;;;;4987431;28;20552;-63
2021/06/18 07:22:45;;;;;;;12.93;7.05;;;;;;;;;;4984380;28;20532;-63
2021/06/18 07:25:14;;;;;;;9.55;6.15;;;;;;;;;;4987259;28;20487;-63
2021/06/18 07:27:44;;;;;;;16.80;7.07;;;;;;;;;;4984830;28;20072;-63
2021/06/18 07:30:12;;;;;;;14.48;7.47;;;;;;;;;;4987259;28;20054;-63
2021/06/18 07:32:41;;;;;;;8.77;6.13;;;;;;;;;;4983582;28;20062;-63
2021/06/18 07:35:10;;;;;;;13.73;7.32;;;;;;;;;;4986771;28;20050;-64
2021/06/18 07:37:39;;;;;;;11.43;6.38;;;;;;;;;;4986442;28;20046;-63
2021/06/18 07:40:11;;;;;;;14.25;6.75;;;;;;;;;;4985234;28;20046;-63
2021/06/18 07:42:41;;;;;;;13.45;6.30;;;;;;;;;;4968135;28;20423;-63
2021/06/18 07:45:10;;;;;;;15.68;6.75;;;;;;;;;;4984225;28;20073;-63
2021/06/18 07:47:39;;;;;;;12.10;6.97;;;;;;;;;;4985484;28;20465;-63
2021/06/18 07:50:09;;;;;;;15.18;7.05;;;;;;;;;;4985952;28;20456;-63
2021/06/18 07:52:39;;;;;;;11.10;6.70;;;;;;;;;;4980120;28;20047;-65
2021/06/18 07:55:10;;;;;;;14.30;7.80;;;;;;;;;;4977930;28;20074;-64
2021/06/18 07:57:42;;;;;;;8.30;6.25;;;;;;;;;;4982561;28;20482;-64
2021/06/18 08:00:12;;;;;;;13.18;6.32;;;;;;;;;;4974491;28;20078;-64
2021/06/18 08:02:41;;;;;;;10.23;6.43;;;;;;;;;;4978550;28;20464;-64
2021/06/18 08:05:11;;;;;;;9.38;6.72;;;;;;;;;;4986234;28;20057;-64
2021/06/18 08:07:41;;;;;;;11.70;6.35;;;;;;;;;;4973068;28;20139;-64
2021/06/18 08:10:12;;;;;;;7.57;6.18;;;;;;;;;;4969161;28;20057;-63
2021/06/18 08:12:43;;;;;;;11.90;6.13;;;;;;;;;;4969011;28;20534;-63
2021/06/18 08:15:13;;;;;;;10.48;6.05;;;;;;;;;;4969622;28;20050;-63
2021/06/18 08:17:43;;;;;;;13.38;6.25;;;;;;;;;;4977269;28;20054;-63
2021/06/18 08:20:13;;;;;;;15.15;6.80;;;;;;;;;;4993040;28;20054;-63
2021/06/18 08:22:42;;;;;;;10.75;6.38;;;;;;;;;;4986669;28;20395;-63
2021/06/18 08:25:11;;;;;;;11.35;6.97;;;;;;;;;;4991758;28;20144;-63
2021/06/18 08:27:39;;;;;;;13.13;7.50;;;;;;;;;;4988099;28;20074;-63
2021/06/18 08:30:10;;;;;;;14.13;7.32;;;;;;;;;;4980313;28;20046;-63
2021/06/18 08:32:55;;;;;;;8.75;7.00;;;;;;;;;;4993442;28;20042;-63
2021/06/18 08:35:27;;;;;;;10.13;7.00;;;;;;;;;;4991172;28;20042;-64
2021/06/18 08:37:56;;;;;;;11.88;7.20;;;;;;;;;;4975955;28;20837;-64
2021/06/18 08:40:25;;;;;;;12.02;6.82;;;;;;;;;;4988354;28;20050;-64
2021/06/18 08:42:54;;;;;;;13.90;6.75;;;;;;;;;;4970645;28;20051;-64
2021/06/18 08:45:25;;;;;;;11.77;6.35;;;;;;;;;;4971589;28;20066;-64
2021/06/18 08:47:54;;;;;;;16.00;6.25;;;;;;;;;;4971014;28;20101;-64
2021/06/18 08:50:26;;;;;;;10.07;5.80;;;;;;;;;;4970970;28;20046;-64
2021/06/18 08:52:56;;;;;;;9.00;6.00;;;;;;;;;;4972225;28;20051;-64
2021/06/18 08:55:25;;;;;;;10.25;6.90;;;;;;;;;;4970471;28;20057;-64
2021/06/18 08:57:55;;;;;;;9.38;6.40;;;;;;;;;;4972732;28;20450;-64
2021/06/18 09:00:25;;;;;;;13.00;6.22;;;;;;;;;;4972421;28;20113;-64
2021/06/18 09:02:55;;;;;;;9.98;6.40;;;;;;;;;;4972181;28;20134;-63
2021/06/18 09:05:25;;;;;;;11.23;6.53;;;;;;;;;;4972134;28;20137;-62
2021/06/18 09:07:54;;;;;;;14.55;6.63;;;;;;;;;;4970426;28;20114;-63
2021/06/18 09:10:31;;;;;;;10.73;7.50;;;;;;;;;;4972127;28;20077;-62
2021/06/18 09:13:10;;;;;;;11.20;6.53;;;;;;;;;;4975469;28;20081;-62
2021/06/18 09:15:41;;;;;;;9.82;6.35;;;;;;;;;;4975474;28;20046;-63
2021/06/18 09:18:23;;;;;;;15.15;7.10;;;;;;;;;;4970542;28;20498;-63
2021/06/18 09:20:52;;;;;;;11.57;7.03;;;;;;;;;;4971017;28;20051;-63
2021/06/18 09:23:21;;;;;;;8.50;6.13;;;;;;;;;;4968249;28;20071;-63
2021/06/18 09:25:50;;;;;;;9.77;6.78;;;;;;;;;;4971844;28;20054;-63
2021/06/18 09:28:19;;;;;;;8.65;5.90;;;;;;;;;;4990503;28;20039;-63
2021/06/18 09:31:05;;;;;;;9.55;6.03;;;;;;;;;;4989421;28;20046;-63
2021/06/18 09:33:44;;;;;;;13.57;6.45;;;;;;;;;;4991154;28;20155;-63
2021/06/18 09:36:13;;;;;;;11.02;6.50;;;;;;;;;;4982371;28;20043;-63
2021/06/18 09:38:43;;;;;;;11.52;6.05;;;;;;;;;;4997022;28;20129;-63
2021/06/18 09:41:29;;;;;;;14.27;6.65;;;;;;;;;;4989568;28;20133;-64
2021/06/18 09:43:58;;;;;;;10.63;6.03;;;;;;;;;;4991499;28;20050;-62
2021/06/18 09:46:49;;;;;;;9.40;6.22;;;;;;;;;;4985257;28;20053;-62
2021/06/18 09:49:38;;;;;;;6.40;5.53;;;;;;;;;;4986149;28;20086;-61
2021/06/18 09:52:07;;;;;;;11.30;6.25;;;;;;;;;;4983166;28;20046;-62
2021/06/18 09:54:39;;;;;;;10.55;6.10;;;;;;;;;;4990916;28;20506;-62
2021/06/18 09:57:12;;;;;;;10.18;6.15;;;;;;;;;;4989763;28;20057;-62
2021/06/18 09:59:47;;;;;;;10.60;6.03;;;;;;;;;;4990917;28;20486;-62
2021/06/18 10:02:18;;;;;;;11.32;6.35;;;;;;;;;;4989125;28;20387;-62
2021/06/18 10:04:51;;;;;;;8.25;5.85;;;;;;;;;;4985438;28;20054;-62
2021/06/18 10:07:27;;;;;;;8.15;5.75;;;;;;;;;;4981584;28;20058;-63
2021/06/18 10:10:01;;;;;;;9.02;6.10;;;;;;;;;;4972842;28;20046;-63
2021/06/18 10:12:30;;;;;;;8.88;5.25;;;;;;;;;;4988481;28;20083;-64
2021/06/18 10:15:05;;;;;;;9.13;5.60;;;;;;;;;;4985745;28;20061;-64
2021/06/18 10:17:36;;;;;;;7.93;5.57;;;;;;;;;;4979949;28;20064;-64
2021/06/18 10:20:06;;;;;;;8.70;5.82;;;;;;;;;;4980948;28;20311;-64
2021/06/18 10:22:38;;;;;;;10.63;5.53;;;;;;;;;;4982920;28;20047;-64
2021/06/18 10:25:10;;;;;;;12.52;6.40;;;;;;;;;;4986633;28;20046;-64
2021/06/18 10:27:41;;;;;;;9.02;5.72;;;;;;;;;;4977172;28;20514;-64
2021/06/18 10:30:32;;;;;;;9.15;6.55;;;;;;;;;;4989187;28;20042;-64
2021/06/18 10:33:04;;;;;;;10.90;5.43;;;;;;;;;;4989785;28;20494;-64
2021/06/18 10:35:58;;;;;;;10.32;6.25;;;;;;;;;;4983985;28;20082;-64
2021/06/18 10:38:28;;;;;;;12.07;6.03;;;;;;;;;;4982448;28;20084;-65
2021/06/18 10:40:57;;;;;;;7.78;5.65;;;;;;;;;;4987374;28;20446;-65
2021/06/18 10:43:34;;;;;;;9.27;5.60;;;;;;;;;;4984284;28;20073;-64
2021/06/18 10:46:16;;;;;;;6.72;4.65;;;;;;;;;;4988518;28;20567;-64
2021/06/18 10:49:02;;;;;;;9.50;5.80;;;;;;;;;;4969061;28;20149;-65
2021/06/18 10:51:33;;;;;;;5.95;5.40;;;;;;;;;;4970695;28;20059;-63
2021/06/18 10:54:03;;;;;;;7.85;5.85;;;;;;;;;;4966749;28;20078;-63
2021/06/18 10:56:50;;;;;;;6.35;5.65;;;;;;;;;;4971712;28;20512;-65
2021/06/18 10:59:28;;;;;;;8.60;5.43;;;;;;;;;;4990461;28;20507;-63
2021/06/18 11:01:56;;;;;;;10.10;4.30;;;;;;;;;;4986551;28;20173;-63
2021/06/18 11:04:41;;;;;;;8.10;4.13;;;;;;;;;;4987124;28;20117;-63
2021/06/18 11:07:20;;;;;;;8.35;4.38;;;;;;;;;;4988368;28;20498;-63
2021/06/18 11:09:49;;;;;;;6.28;4.82;;;;;;;;;;4989033;28;20076;-64
2021/06/18 11:12:36;;;;;;;8.98;4.57;;;;;;;;;;4990385;28;20125;-64
2021/06/18 11:15:06;;;;;;;5.32;3.95;;;;;;;;;;4978751;28;20054;-64
2021/06/18 11:17:43;;;;;;;8.80;4.57;;;;;;;;;;4986393;28;20402;-66
2021/06/18 11:20:14;;;;;;;9.23;4.93;;;;;;;;;;4980303;28;20145;-66
2021/06/18 11:22:47;;;;;;;5.93;4.93;;;;;;;;;;4990116;28;20057;-66
2021/06/18 11:25:46;;;;;;;9.85;5.15;;;;;;;;;;4984772;28;20050;-65
2021/06/18 11:28:34;;;;;;;7.68;4.80;;;;;;;;;;4890255;29;20068;-66
2021/06/18 11:31:05;;;;;;;11.30;5.47;;;;;;;;;;4977764;28;20445;-66
2021/06/18 11:33:53;;;;;;;6.05;4.63;;;;;;;;;;4987638;28;20072;-66
2021/06/18 11:36:50;;;;;;;8.77;4.75;;;;;;;;;;4985852;28;20054;-66
2021/06/18 11:39:22;;;;;;;6.25;5.00;;;;;;;;;;4987043;28;20050;-66
2021/06/18 11:41:57;;;;;;;8.93;4.45;;;;;;;;;;4992628;28;20138;-65
2021/06/18 11:44:26;;;;;;;7.68;4.70;;;;;;;;;;4994382;28;20054;-65
2021/06/18 11:46:56;;;;;;;5.88;3.75;;;;;;;;;;4988160;28;20502;-65
2021/06/18 11:49:33;;;;;;;8.70;4.35;;;;;;;;;;4988430;28;20148;-64
2021/06/18 11:52:03;;;;;;;8.20;4.13;;;;;;;;;;4990762;28;20046;-65
2021/06/18 11:54:34;;;;;;;6.55;4.18;;;;;;;;;;4991779;28;20046;-65
2021/06/18 11:57:07;;;;;;;9.02;4.40;;;;;;;;;;4990842;28;20046;-66
2021/06/18 11:59:38;;;;;;;7.53;3.78;;;;;;;;;;4986881;28;20173;-65
2021/06/18 12:02:18;;;;;;;16.15;4.22;;;;;;;;;;4991816;28;20081;-65
2021/06/18 12:04:47;;;;;;;7.97;4.28;;;;;;;;;;4979610;28;20050;-65
2021/06/18 12:07:29;;;;;;;5.65;4.00;;;;;;;;;;4989677;28;20162;-65
2021/06/18 12:09:59;;;;;;;8.32;4.15;;;;;;;;;;4992263;28;20085;-65
2021/06/18 12:12:28;;;;;;;9.60;4.05;;;;;;;;;;4993045;28;20096;-64
2021/06/18 12:14:58;;;;;;;6.20;4.03;;;;;;;;;;4988579;28;20051;-64
2021/06/18 12:17:27;;;;;;;8.38;3.53;;;;;;;;;;4987583;28;20486;-64
2021/06/18 12:19:58;;;;;;;5.38;3.80;;;;;;;;;;4992935;28;20133;-64
2021/06/18 12:22:30;;;;;;;6.68;3.92;;;;;;;;;;4991018;28;20296;-64
2021/06/18 12:25:02;;;;;;;6.55;4.20;;;;;;;;;;4980348;28;20133;-65
2021/06/18 12:27:32;;;;;;;5.38;4.20;;;;;;;;;;4988897;28;20053;-64
2021/06/18 12:30:02;;;;;;;6.30;5.15;;;;;;;;;;4989816;28;20042;-64
2021/06/18 12:32:33;;;;;;;8.23;4.30;;;;;;;;;;4992732;28;20082;-64
2021/06/18 12:35:04;;;;;;;6.93;4.18;;;;;;;;;;4988321;28;20056;-64
2021/06/18 12:37:34;;;;;;;6.75;4.03;;;;;;;;;;4951425;28;20069;-65
2021/06/18 12:40:08;;;;;;;7.65;3.45;;;;;;;;;;385082;28;10021899;-64
2021/06/18 12:42:41;;;;;;;6.30;3.83;;;;;;;;;;4988766;28;20386;-64
2021/06/18 12:45:13;;;;;;;5.93;3.97;;;;;;;;;;4989129;28;20485;-66
2021/06/18 12:47:44;;;;;;;7.00;4.13;;;;;;;;;;4978132;28;20397;-66
2021/06/18 12:50:22;;;;;;;8.27;3.83;;;;;;;;;;4970097;28;20545;-65
2021/06/18 12:52:51;;;;;;;4.25;2.72;;;;;;;;;;4968933;28;20062;-65
2021/06/18 12:55:26;;;;;;;4.25;3.00;;;;;;;;;;4961836;28;20525;-66
2021/06/18 12:58:08;;;;;;;7.85;3.20;;;;;;;;;;4974246;28;20054;-65
2021/06/18 13:00:46;;;;;;;5.30;3.78;;;;;;;;;;4974096;28;20081;-65
2021/06/18 13:03:36;;;;;;;7.60;3.55;;;;;;;;;;4965523;28;20051;-65
2021/06/18 13:06:06;;;;;;;5.53;3.50;;;;;;;;;;4977213;28;20332;-65
2021/06/18 13:08:45;;;;;;;5.43;3.40;;;;;;;;;;4977535;28;20058;-66
2021/06/18 13:11:25;;;;;;;4.38;3.20;;;;;;;;;;4960136;28;20169;-65
2021/06/18 13:14:11;;;;;;;6.72;3.22;;;;;;;;;;4962598;28;20061;-65
2021/06/18 13:16:42;;;;;;;6.90;3.50;;;;;;;;;;4979317;28;20050;-65
2021/06/18 13:19:11;;;;;;;8.90;3.63;;;;;;;;;;4983075;28;20054;-66
2021/06/18 13:21:44;;;;;;;6.72;3.50;;;;;;;;;;4988099;28;20360;-64
2021/06/18 13:24:14;;;;;;;8.43;3.28;;;;;;;;;;4985130;28;20063;-65
2021/06/18 13:26:44;;;;;;;8.88;3.20;;;;;;;;;;4982139;28;20169;-65
2021/06/18 13:29:14;;;;;;;7.85;3.55;;;;;;;;;;4982494;28;20142;-65
2021/06/18 13:31:44;;;;;;;5.82;3.03;;;;;;;;;;4984919;28;20117;-65
2021/06/18 13:34:13;;;;;;;5.25;3.42;;;;;;;;;;4990609;28;20090;-65
2021/06/18 13:36:42;;;;;;;6.70;3.10;;;;;;;;;;4985683;28;20101;-65
2021/06/18 13:39:15;;;;;;;5.07;3.30;;;;;;;;;;4987701;28;20068;-65
2021/06/18 13:41:46;;;;;;;5.57;3.22;;;;;;;;;;4991825;28;20050;-65
2021/06/18 13:44:15;;;;;;;10.70;4.18;;;;;;;;;;4987266;28;20116;-65
2021/06/18 13:46:44;;;;;;;6.78;3.20;;;;;;;;;;4989040;28;20153;-65
2021/06/18 13:49:13;;;;;;;7.55;3.60;;;;;;;;;;4983431;28;20050;-65
2021/06/18 13:51:42;;;;;;;8.82;3.35;;;;;;;;;;4977129;28;20105;-65
2021/06/18 13:54:11;;;;;;;6.32;3.47;;;;;;;;;;4993882;28;20050;-66
2021/06/18 13:56:41;;;;;;;7.95;4.00;;;;;;;;;;4987831;28;20046;-66
2021/06/18 13:59:11;;;;;;;5.70;3.45;;;;;;;;;;4985370;28;20046;-65
2021/06/18 14:01:40;;;;;;;18.65;4.55;;;;;;;;;;4985615;28;20057;-66
2021/06/18 14:04:10;;;;;;;7.70;3.45;;;;;;;;;;4985704;28;20165;-64
2021/06/18 14:06:41;;;;;;;9.02;3.70;;;;;;;;;;4989541;28;20042;-63
2021/06/18 14:09:10;;;;;;;7.10;3.40;;;;;;;;;;4989494;28;20050;-63
2021/06/18 14:11:38;;;;;;;6.30;3.30;;;;;;;;;;4984181;28;20054;-63
2021/06/18 14:14:15;;;;;;;6.72;3.47;;;;;;;;;;4976828;28;20042;-63
2021/06/18 14:16:46;;;;;;;10.10;3.40;;;;;;;;;;4979674;28;20104;-63
2021/06/18 14:19:15;;;;;;;6.63;3.47;;;;;;;;;;4980443;28;20043;-63
2021/06/18 14:21:44;;;;;;;6.22;2.95;;;;;;;;;;4988367;28;20427;-63
2021/06/18 14:24:13;;;;;;;4.10;3.30;;;;;;;;;;4989041;28;20418;-63
2021/06/18 14:26:42;;;;;;;5.65;3.20;;;;;;;;;;4984098;28;20543;-64
2021/06/18 14:29:10;;;;;;;8.32;3.40;;;;;;;;;;4986974;28;20046;-63
2021/06/18 14:31:40;;;;;;;5.53;3.05;;;;;;;;;;4983291;28;20121;-63
2021/06/18 14:34:10;;;;;;;5.60;3.35;;;;;;;;;;4988668;28;20447;-63
2021/06/18 14:36:40;;;;;;;5.57;3.20;;;;;;;;;;4988731;28;20046;-63
2021/06/18 14:39:10;;;;;;;4.78;2.92;;;;;;;;;;4990124;28;20050;-63
2021/06/18 14:41:39;;;;;;;7.13;3.03;;;;;;;;;;4990371;28;20077;-63
2021/06/18 14:44:08;;;;;;;4.45;2.88;;;;;;;;;;4982844;28;20053;-63
2021/06/18 14:46:37;;;;;;;7.45;3.53;;;;;;;;;;4974443;28;20062;-63
2021/06/18 14:49:05;;;;;;;6.30;3.22;;;;;;;;;;4989663;28;20054;-63
2021/06/18 14:51:40;;;;;;;5.57;3.08;;;;;;;;;;4989109;28;20490;-63
2021/06/18 14:54:09;;;;;;;5.18;2.90;;;;;;;;;;4983635;28;20086;-63
2021/06/18 14:56:42;;;;;;;6.53;2.83;;;;;;;;;;4988995;28;20144;-62
2021/06/18 14:59:10;;;;;;;6.57;2.85;;;;;;;;;;4987804;28;20153;-62